createdAt,value
2023-11-12T00:02:20.448Z,94395.81
2023-11-12T00:04:48.638Z,94397.31
2023-11-12T00:07:16.072Z,94406.56
2023-11-12T00:09:43.129Z,94390.50
2023-11-12T00:12:10.535Z,94405.28
2023-11-12T00:14:41.605Z,94401.91
2023-11-12T00:17:10.478Z,94394.22
2023-11-12T00:19:37.844Z,94416.19
2023-11-12T00:22:07.051Z,94419.44
2023-11-12T00:24:34.537Z,94415.88
2023-11-12T00:27:01.632Z,94412.75
2023-11-12T00:29:28.816Z,94402.28
2023-11-12T00:31:57.154Z,94403.19
2023-11-12T00:34:24.629Z,94411.28
2023-11-12T00:36:52.519Z,94392.28
2023-11-12T00:39:19.681Z,94392.84
2023-11-12T00:41:46.827Z,94392.50
2023-11-12T00:44:14.354Z,94396.88
2023-11-12T00:46:42.492Z,94403.22
2023-11-12T00:49:09.869Z,94385.94
2023-11-12T00:51:37.790Z,94401.34
2023-11-12T00:54:05.330Z,94398.47
2023-11-12T00:56:33.387Z,94386.81
2023-11-12T00:59:00.710Z,94389.38
2023-11-12T01:01:28.508Z,94385.00
2023-11-12T01:03:57.545Z,94388.09
2023-11-12T01:06:25.431Z,94394.00
2023-11-12T01:08:52.608Z,94388.47
2023-11-12T01:11:19.836Z,94382.25
2023-11-12T01:13:47.220Z,94377.09
2023-11-12T01:16:14.491Z,94391.94
2023-11-12T01:18:43.252Z,94383.84
2023-11-12T01:21:11.056Z,94396.28
2023-11-12T01:23:38.535Z,94396.75
2023-11-12T01:26:05.799Z,94402.53
2023-11-12T01:28:35.487Z,94403.28
2023-11-12T01:31:03.512Z,94409.75
2023-11-12T01:33:30.943Z,94402.63
2023-11-12T01:35:58.984Z,94399.75
2023-11-12T01:38:26.250Z,94391.00
2023-11-12T01:40:55.777Z,94390.63
2023-11-12T01:43:23.091Z,94392.09
2023-11-12T01:45:51.065Z,94389.91
2023-11-12T01:48:18.586Z,94393.69
2023-11-12T01:50:46.035Z,94397.72
2023-11-12T01:53:15.819Z,94394.72
2023-11-12T01:55:45.562Z,94404.06
2023-11-12T01:58:14.627Z,94389.31
2023-11-12T02:00:42.506Z,94397.53
2023-11-12T02:03:14.600Z,94400.97
2023-11-12T02:05:43.127Z,94390.22
2023-11-12T02:08:11.102Z,94397.84
2023-11-12T02:10:39.182Z,94395.38
2023-11-12T02:13:08.062Z,94397.72
2023-11-12T02:15:37.099Z,94400.09
2023-11-12T02:18:04.889Z,94405.94
2023-11-12T02:20:32.389Z,94402.72
2023-11-12T02:23:00.001Z,94408.88
2023-11-12T02:25:27.311Z,94410.00
2023-11-12T02:27:54.559Z,94400.81
2023-11-12T02:30:21.934Z,94399.84
2023-11-12T02:32:49.634Z,94407.84
2023-11-12T02:35:17.973Z,94399.19
2023-11-12T02:37:46.037Z,94405.66
2023-11-12T02:40:13.608Z,94405.13
2023-11-12T02:42:41.010Z,94394.84
2023-11-12T02:45:09.820Z,94399.41
2023-11-12T02:47:37.245Z,94401.00
2023-11-12T02:50:32.785Z,94392.28
2023-11-12T02:53:02.016Z,94400.97
2023-11-12T02:55:30.524Z,94397.72
2023-11-12T02:57:59.228Z,94393.72
2023-11-12T03:00:28.937Z,94406.06
2023-11-12T03:03:02.035Z,94398.28
2023-11-12T03:05:30.969Z,94401.97
2023-11-12T03:08:01.383Z,94405.41
2023-11-12T03:10:29.782Z,94409.66
2023-11-12T03:12:57.202Z,94384.06
2023-11-12T03:15:25.647Z,94419.00
2023-11-12T03:17:54.280Z,94412.69
2023-11-12T03:20:21.962Z,94422.97
2023-11-12T03:22:49.135Z,94419.00
2023-11-12T03:25:16.497Z,94422.88
2023-11-12T03:27:44.143Z,94403.59
2023-11-12T03:30:14.294Z,94439.09
2023-11-12T03:32:42.061Z,94439.91
2023-11-12T03:35:09.863Z,94442.41
2023-11-12T03:37:39.252Z,94443.22
2023-11-12T03:40:07.623Z,94448.19
2023-11-12T03:42:35.168Z,94462.16
2023-11-12T03:45:03.968Z,94455.38
2023-11-12T03:47:33.323Z,94458.25
2023-11-12T03:50:00.854Z,94453.63
2023-11-12T03:52:27.981Z,94439.38
2023-11-12T03:54:55.263Z,94457.47
2023-11-12T03:57:23.864Z,94457.00
2023-11-12T03:59:53.155Z,94448.69
2023-11-12T04:02:22.170Z,94454.03
2023-11-12T04:04:49.586Z,94459.53
2023-11-12T04:07:17.297Z,94457.69
2023-11-12T04:09:44.641Z,94438.69
2023-11-12T04:12:12.974Z,94442.66
2023-11-12T04:14:40.313Z,94449.75
2023-11-12T04:17:07.711Z,94458.16
2023-11-12T04:19:34.841Z,94461.38
2023-11-12T04:22:02.018Z,94453.03
2023-11-12T04:24:29.813Z,94453.34
2023-11-12T04:26:57.495Z,94463.47
2023-11-12T04:29:24.821Z,94465.31
2023-11-12T04:31:51.998Z,94478.66
2023-11-12T04:34:19.140Z,94478.00
2023-11-12T04:36:46.234Z,94478.13
2023-11-12T04:39:13.505Z,94485.97
2023-11-12T04:41:40.685Z,94479.03
2023-11-12T04:44:07.741Z,94481.84
2023-11-12T04:46:36.348Z,94464.97
2023-11-12T04:49:03.776Z,94464.47
2023-11-12T04:51:34.316Z,94469.81
2023-11-12T04:54:01.799Z,94472.81
2023-11-12T04:56:28.966Z,94477.91
2023-11-12T04:58:56.063Z,94466.91
2023-11-12T05:01:23.263Z,94479.47
2023-11-12T05:03:50.554Z,94485.50
2023-11-12T05:06:17.909Z,94495.41
2023-11-12T05:08:44.953Z,94483.28
2023-11-12T05:11:12.188Z,94475.69
2023-11-12T05:13:39.362Z,94464.00
2023-11-12T05:16:06.998Z,94468.19
2023-11-12T05:18:34.171Z,94483.97
2023-11-12T05:21:01.352Z,94494.75
2023-11-12T05:23:28.491Z,94498.91
2023-11-12T05:25:59.489Z,94496.53
2023-11-12T05:28:30.568Z,94508.56
2023-11-12T05:30:57.785Z,94504.75
2023-11-12T05:33:24.933Z,94516.78
2023-11-12T05:35:52.373Z,94506.66
2023-11-12T05:38:19.489Z,94506.34
2023-11-12T05:40:46.694Z,94518.28
2023-11-12T05:43:13.879Z,94532.72
2023-11-12T05:45:41.049Z,94530.25
2023-11-12T05:48:11.060Z,94531.69
2023-11-12T05:50:39.093Z,94545.38
2023-11-12T05:53:06.181Z,94551.13
2023-11-12T05:55:33.628Z,94542.03
2023-11-12T05:58:00.822Z,94561.75
2023-11-12T06:00:28.155Z,94551.19
2023-11-12T06:02:55.659Z,94559.53
2023-11-12T06:05:22.870Z,94572.94
2023-11-12T06:07:50.234Z,94576.53
2023-11-12T06:10:17.612Z,94592.53
2023-11-12T06:12:45.532Z,94588.41
2023-11-12T06:15:12.900Z,94594.91
2023-11-12T06:17:40.390Z,94595.13
2023-11-12T06:20:08.304Z,94598.44
2023-11-12T06:22:35.550Z,94604.31
2023-11-12T06:25:02.782Z,94593.06
2023-11-12T06:27:31.310Z,94611.31
2023-11-12T06:29:59.146Z,94617.97
2023-11-12T06:32:26.349Z,94600.22
2023-11-12T06:34:53.557Z,94619.38
2023-11-12T06:37:20.795Z,94615.81
2023-11-12T06:39:47.956Z,94602.41
2023-11-12T06:42:15.920Z,94611.78
2023-11-12T06:44:43.485Z,94622.97
2023-11-12T06:47:10.650Z,94632.41
2023-11-12T06:49:37.681Z,94633.22
2023-11-12T06:52:05.133Z,94627.47
2023-11-12T06:54:32.326Z,94643.38
2023-11-12T06:57:00.636Z,94651.00
2023-11-12T06:59:29.206Z,94642.13
2023-11-12T07:01:56.484Z,94644.63
2023-11-12T07:04:23.638Z,94654.00
2023-11-12T07:07:01.846Z,94655.03
2023-11-12T07:09:36.868Z,94654.09
2023-11-12T07:12:05.895Z,94660.16
2023-11-12T07:14:33.274Z,94656.19
2023-11-12T07:17:00.935Z,94661.63
2023-11-12T07:19:29.829Z,94652.81
2023-11-12T07:21:56.964Z,94658.84
2023-11-12T07:24:24.061Z,94656.75
2023-11-12T07:26:51.244Z,94651.03
2023-11-12T07:29:18.306Z,94669.63
2023-11-12T07:31:45.990Z,94659.91
2023-11-12T07:34:13.185Z,94667.63
2023-11-12T07:36:40.378Z,94667.81
2023-11-12T07:39:08.928Z,94671.59
2023-11-12T07:41:36.605Z,94666.00
2023-11-12T07:44:04.062Z,94667.91
2023-11-12T07:46:31.406Z,94674.13
2023-11-12T07:48:58.704Z,94654.56
2023-11-12T07:51:25.832Z,94657.19
2023-11-12T07:53:52.994Z,94650.44
2023-11-12T07:56:23.331Z,94653.28
2023-11-12T07:58:51.729Z,94647.75
2023-11-12T08:01:18.955Z,94656.38
2023-11-12T08:03:46.192Z,94665.00
2023-11-12T08:06:14.770Z,94670.78
2023-11-12T08:08:42.165Z,94676.09
2023-11-12T08:11:09.178Z,94671.88
2023-11-12T08:13:37.484Z,94670.56
2023-11-12T08:16:05.552Z,94673.28
2023-11-12T08:18:33.776Z,94670.41
2023-11-12T08:21:00.935Z,94677.09
2023-11-12T08:23:28.017Z,94669.97
2023-11-12T08:25:55.938Z,94675.28
2023-11-12T08:28:25.775Z,94682.22
2023-11-12T08:30:53.048Z,94690.41
2023-11-12T08:33:20.221Z,94689.97
2023-11-12T08:35:47.259Z,94687.91
2023-11-12T08:38:14.501Z,94689.56
2023-11-12T08:40:44.279Z,94687.72
2023-11-12T08:43:11.741Z,94680.31
2023-11-12T08:45:38.930Z,94679.56
2023-11-12T08:48:06.328Z,94677.19
2023-11-12T08:50:34.351Z,94679.44
2023-11-12T08:53:03.243Z,94676.69
2023-11-12T08:55:30.736Z,94667.28
2023-11-12T08:57:58.216Z,94677.53
2023-11-12T09:00:25.629Z,94680.03
2023-11-12T09:02:52.979Z,94681.97
2023-11-12T09:05:20.252Z,94680.50
2023-11-12T09:07:48.014Z,94682.81
2023-11-12T09:10:15.310Z,94684.75
2023-11-12T09:12:42.476Z,94681.63
2023-11-12T09:15:11.085Z,94684.38
2023-11-12T09:17:38.815Z,94681.72
2023-11-12T09:20:07.164Z,94682.88
2023-11-12T09:22:34.687Z,94667.03
2023-11-12T09:25:09.520Z,94668.41
2023-11-12T09:27:39.236Z,94665.91
2023-11-12T09:30:07.454Z,94667.56
2023-11-12T09:32:35.029Z,94643.25
2023-11-12T09:35:02.164Z,94660.34
2023-11-12T09:37:30.412Z,94664.00
2023-11-12T09:39:57.531Z,94663.66
2023-11-12T09:42:28.235Z,94660.09
2023-11-12T09:45:06.569Z,94649.75
2023-11-12T09:47:43.753Z,94654.78
2023-11-12T09:50:12.091Z,94654.34
2023-11-12T09:52:39.914Z,94649.53
2023-11-12T09:55:08.639Z,94639.31
2023-11-12T09:57:35.797Z,94648.44
2023-11-12T10:00:06.479Z,94655.28
2023-11-12T10:02:38.155Z,94651.69
2023-11-12T10:05:11.517Z,94636.66
2023-11-12T10:07:42.166Z,94658.16
2023-11-12T10:10:25.915Z,94651.97
2023-11-12T10:12:55.604Z,94650.75
2023-11-12T10:15:27.983Z,94656.72
2023-11-12T10:17:59.733Z,94652.19
2023-11-12T10:20:31.795Z,94638.75
2023-11-12T10:22:59.089Z,94660.03
2023-11-12T10:25:40.831Z,94665.59
2023-11-12T10:28:11.129Z,94678.31
2023-11-12T10:30:42.651Z,94683.09
2023-11-12T10:33:28.348Z,94681.44
2023-11-12T10:35:56.824Z,94677.53
2023-11-12T10:38:24.444Z,94681.06
2023-11-12T10:40:59.773Z,94674.69
2023-11-12T10:43:28.875Z,94686.38
2023-11-12T10:45:59.992Z,94677.41
2023-11-12T10:48:35.202Z,94700.50
2023-11-12T10:51:07.885Z,94692.91
2023-11-12T10:53:38.766Z,94694.75
2023-11-12T10:56:11.166Z,94697.59
2023-11-12T10:58:38.420Z,94696.59
2023-11-12T11:01:08.467Z,94689.69
2023-11-12T11:03:36.699Z,94695.47
2023-11-12T11:06:05.083Z,94690.38
2023-11-12T11:08:34.766Z,94687.34
2023-11-12T11:11:05.900Z,94677.91
2023-11-12T11:13:34.561Z,94683.97
2023-11-12T11:16:02.084Z,94684.59
2023-11-12T11:18:31.959Z,94684.38
2023-11-12T11:21:16.634Z,94687.09
2023-11-12T11:23:55.091Z,94687.69
2023-11-12T11:26:28.372Z,94691.28
2023-11-12T11:29:04.114Z,94692.44
2023-11-12T11:31:35.339Z,94674.25
2023-11-12T11:34:04.331Z,94691.47
2023-11-12T11:36:32.935Z,94696.00
2023-11-12T11:39:03.686Z,94690.16
2023-11-12T11:41:49.177Z,94685.53
2023-11-12T11:44:47.800Z,94696.06
2023-11-12T11:47:16.363Z,94704.19
2023-11-12T11:49:48.464Z,94699.66
2023-11-12T11:52:25.465Z,94701.47
2023-11-12T11:54:57.551Z,94702.94
2023-11-12T11:57:29.401Z,94699.00
2023-11-12T12:00:00.694Z,94684.38
2023-11-12T12:02:28.895Z,94682.63
2023-11-12T12:05:01.033Z,94676.50
2023-11-12T12:07:32.627Z,94677.03
2023-11-12T12:10:01.705Z,94667.03
2023-11-12T12:12:32.006Z,94685.47
2023-11-12T12:14:59.315Z,94687.31
2023-11-12T12:17:26.597Z,94699.56
2023-11-12T12:19:55.128Z,94701.16
2023-11-12T12:22:25.881Z,94708.97
2023-11-12T12:24:56.902Z,94695.56
2023-11-12T12:27:25.596Z,94703.16
2023-11-12T12:29:54.577Z,94687.84
2023-11-12T12:32:22.442Z,94699.28
2023-11-12T12:35:01.528Z,94669.13
2023-11-12T12:37:32.754Z,94705.13
2023-11-12T12:40:18.171Z,94704.22
2023-11-12T12:42:46.121Z,94695.97
2023-11-12T12:45:17.147Z,94712.06
2023-11-12T12:47:45.692Z,94708.53
2023-11-12T12:50:29.743Z,94706.00
2023-11-12T12:53:14.407Z,94707.59
2023-11-12T12:55:45.794Z,94685.16
2023-11-12T12:58:13.645Z,94704.25
2023-11-12T13:00:45.123Z,94696.91
2023-11-12T13:03:28.407Z,94705.97
2023-11-12T13:05:58.046Z,94693.25
2023-11-12T13:08:25.499Z,94706.19
2023-11-12T13:10:52.904Z,94688.69
2023-11-12T13:13:22.908Z,94718.91
2023-11-12T13:15:50.517Z,94723.72
2023-11-12T13:18:19.169Z,94718.38
2023-11-12T13:20:47.392Z,94712.34
2023-11-12T13:23:15.316Z,94703.56
2023-11-12T13:25:43.174Z,94695.81
2023-11-12T13:28:13.119Z,94713.19
2023-11-12T13:30:40.551Z,94707.41
2023-11-12T13:33:09.103Z,94698.78
2023-11-12T13:35:39.284Z,94696.41
2023-11-12T13:38:07.046Z,94698.13
2023-11-12T13:40:34.479Z,94698.31
2023-11-12T13:43:01.849Z,94707.69
2023-11-12T13:45:29.237Z,94720.03
2023-11-12T13:47:56.740Z,94717.59
2023-11-12T13:50:26.368Z,94706.88
2023-11-12T13:52:59.544Z,94710.34
2023-11-12T13:55:30.323Z,94715.66
2023-11-12T13:58:00.650Z,94726.31
2023-11-12T14:00:31.959Z,94720.13
2023-11-12T14:03:02.715Z,94718.97
2023-11-12T14:05:30.022Z,94715.84
2023-11-12T14:08:00.859Z,94724.94
2023-11-12T14:10:28.378Z,94733.31
2023-11-12T14:12:55.601Z,94741.94
2023-11-12T14:15:23.505Z,94742.22
2023-11-12T14:18:15.495Z,94744.03
2023-11-12T14:20:43.311Z,94726.81
2023-11-12T14:23:10.642Z,94755.91
2023-11-12T14:25:52.366Z,94758.06
2023-11-12T14:28:24.743Z,94761.00
2023-11-12T14:30:52.228Z,94760.19
2023-11-12T14:33:19.800Z,94776.16
2023-11-12T14:35:47.005Z,94765.88
2023-11-12T14:38:14.389Z,94763.16
2023-11-12T14:40:41.542Z,94757.66
2023-11-12T14:43:11.080Z,94726.50
2023-11-12T14:45:39.237Z,94746.06
2023-11-12T14:48:08.518Z,94757.28
2023-11-12T14:50:35.503Z,94746.94
2023-11-12T14:53:02.622Z,94741.78
2023-11-12T14:55:29.859Z,94742.84
2023-11-12T14:57:58.101Z,94742.50
2023-11-12T15:00:29.794Z,94738.53
2023-11-12T15:03:01.734Z,94732.59
2023-11-12T15:05:29.676Z,94727.66
2023-11-12T15:07:57.090Z,94731.63
2023-11-12T15:10:24.325Z,94732.44
2023-11-12T15:12:51.962Z,94744.84
2023-11-12T15:15:20.693Z,94740.56
2023-11-12T15:17:48.407Z,94742.88
2023-11-12T15:20:15.775Z,94742.06
2023-11-12T15:22:45.695Z,94728.03
2023-11-12T15:25:16.721Z,94724.41
2023-11-12T15:27:49.658Z,94736.88
2023-11-12T15:30:18.721Z,94738.28
2023-11-12T15:32:47.227Z,94741.56
2023-11-12T15:35:15.917Z,94751.22
2023-11-12T15:37:45.600Z,94748.56
2023-11-12T15:40:19.862Z,94749.13
2023-11-12T15:42:53.500Z,94744.44
2023-11-12T15:45:25.019Z,94739.66
2023-11-12T15:47:53.207Z,94751.22
2023-11-12T15:50:22.947Z,94758.84
2023-11-12T15:52:50.330Z,94766.34
2023-11-12T15:55:18.715Z,94753.41
2023-11-12T15:57:46.316Z,94757.72
2023-11-12T16:00:16.436Z,94762.53
2023-11-12T16:02:45.773Z,94747.63
2023-11-12T16:05:16.591Z,94769.06
2023-11-12T16:07:44.985Z,94765.72
2023-11-12T16:10:15.592Z,94774.22
2023-11-12T16:12:43.308Z,94779.88
2023-11-12T16:15:16.722Z,94784.31
2023-11-12T16:17:45.538Z,94786.69
2023-11-12T16:20:13.956Z,94790.00
2023-11-12T16:22:42.201Z,94784.22
2023-11-12T16:25:10.574Z,94789.81
2023-11-12T16:27:39.092Z,94787.97
2023-11-12T16:30:08.781Z,94783.47
2023-11-12T16:32:39.468Z,94797.81
2023-11-12T16:35:07.843Z,94793.91
2023-11-12T16:37:34.911Z,94800.69
2023-11-12T16:40:06.156Z,94778.38
2023-11-12T16:42:33.723Z,94785.06
2023-11-12T16:45:00.887Z,94785.56
2023-11-12T16:47:30.419Z,94797.00
2023-11-12T16:49:58.070Z,94783.47
2023-11-12T16:52:25.551Z,94784.97
2023-11-12T16:54:54.637Z,94782.88
2023-11-12T16:57:21.865Z,94786.69
2023-11-12T16:59:49.231Z,94794.66
2023-11-12T17:02:17.481Z,94788.31
2023-11-12T17:04:46.427Z,94799.81
2023-11-12T17:07:13.558Z,94799.81
2023-11-12T17:09:46.505Z,94782.84
2023-11-12T17:12:15.047Z,94786.03
2023-11-12T17:14:42.866Z,94801.06
2023-11-12T17:17:10.080Z,94797.69
2023-11-12T17:19:37.293Z,94807.19
2023-11-12T17:22:04.595Z,94811.94
2023-11-12T17:24:33.207Z,94818.72
2023-11-12T17:27:05.070Z,94818.25
2023-11-12T17:29:35.238Z,94819.88
2023-11-12T17:32:02.469Z,94811.56
2023-11-12T17:34:30.602Z,94823.31
2023-11-12T17:37:00.213Z,94814.19
2023-11-12T17:39:27.500Z,94829.28
2023-11-12T17:41:54.624Z,94829.97
2023-11-12T17:44:24.579Z,94838.41
2023-11-12T17:46:51.835Z,94832.72
2023-11-12T17:49:19.359Z,94833.41
2023-11-12T17:51:47.614Z,94834.34
2023-11-12T17:54:17.160Z,94843.00
2023-11-12T17:56:44.440Z,94833.28
2023-11-12T17:59:12.879Z,94833.91
2023-11-12T18:01:43.246Z,94830.88
2023-11-12T18:04:10.439Z,94831.22
2023-11-12T18:06:39.283Z,94827.69
2023-11-12T18:09:06.576Z,94823.53
2023-11-12T18:11:35.347Z,94823.41
2023-11-12T18:14:02.455Z,94841.28
2023-11-12T18:16:29.754Z,94838.28
2023-11-12T18:18:59.662Z,94841.66
2023-11-12T18:21:30.125Z,94844.78
2023-11-12T18:23:57.375Z,94852.63
2023-11-12T18:26:25.118Z,94851.59
2023-11-12T18:28:53.279Z,94850.78
2023-11-12T18:31:24.735Z,94832.53
2023-11-12T18:33:52.228Z,94833.19
2023-11-12T18:36:19.430Z,94843.75
2023-11-12T18:38:46.584Z,94838.31
2023-11-12T18:41:15.676Z,94854.13
2023-11-12T18:43:42.910Z,94855.50
2023-11-12T18:46:10.267Z,94866.84
2023-11-12T18:48:41.402Z,94870.09
2023-11-12T18:51:08.759Z,94854.16
2023-11-12T18:53:36.141Z,94867.66
2023-11-12T18:56:08.440Z,94866.72
2023-11-12T18:58:36.063Z,94875.28
2023-11-12T19:01:03.146Z,94876.31
2023-11-12T19:03:30.822Z,94870.88
2023-11-12T19:05:57.960Z,94871.69
2023-11-12T19:08:25.056Z,94862.22
2023-11-12T19:10:52.247Z,94875.38
2023-11-12T19:13:19.480Z,94867.41
2023-11-12T19:15:47.068Z,94879.44
2023-11-12T19:18:14.669Z,94849.63
2023-11-12T19:20:42.061Z,94877.00
2023-11-12T19:23:09.246Z,94875.16
2023-11-12T19:25:40.267Z,94867.66
2023-11-12T19:28:07.496Z,94874.81
2023-11-12T19:30:35.805Z,94885.31
2023-11-12T19:33:03.312Z,94875.41
2023-11-12T19:35:30.409Z,94874.25
2023-11-12T19:37:58.015Z,94864.31
2023-11-12T19:40:26.692Z,94889.47
2023-11-12T19:42:54.444Z,94860.13
2023-11-12T19:45:22.794Z,94894.47
2023-11-12T19:47:54.782Z,94882.44
2023-11-12T19:50:23.563Z,94875.00
2023-11-12T19:52:51.253Z,94873.75
2023-11-12T19:55:20.836Z,94880.66
2023-11-12T19:57:53.834Z,94887.16
2023-11-12T20:00:23.150Z,94893.50
2023-11-12T20:02:51.978Z,94893.28
2023-11-12T20:05:19.880Z,94892.34
2023-11-12T20:07:46.771Z,94884.38
2023-11-12T20:10:14.407Z,94885.41
2023-11-12T20:12:41.611Z,94884.28
2023-11-12T20:15:09.625Z,94881.50
2023-11-12T20:17:37.859Z,94879.78
2023-11-12T20:20:05.695Z,94877.88
2023-11-12T20:22:33.349Z,94886.34
2023-11-12T20:25:01.248Z,94885.16
2023-11-12T20:27:32.473Z,94884.94
2023-11-12T20:29:59.775Z,94888.50
2023-11-12T20:32:29.370Z,94895.03
2023-11-12T20:34:57.532Z,94896.22
2023-11-12T20:37:26.161Z,94871.69
2023-11-12T20:39:53.559Z,94878.91
2023-11-12T20:42:21.023Z,94890.44
2023-11-12T20:44:49.390Z,94876.25
2023-11-12T20:47:16.671Z,94871.28
2023-11-12T20:49:44.150Z,94872.56
2023-11-12T20:52:11.582Z,94865.63
2023-11-12T20:54:39.221Z,94869.22
2023-11-12T20:57:07.625Z,94866.69
2023-11-12T20:59:35.067Z,94850.88
2023-11-12T21:02:13.729Z,94850.06
2023-11-12T21:04:46.142Z,94849.50
2023-11-12T21:07:14.061Z,94843.72
2023-11-12T21:09:41.792Z,94849.75
2023-11-12T21:12:10.684Z,94828.84
2023-11-12T21:14:38.539Z,94828.03
2023-11-12T21:17:05.768Z,94825.59
2023-11-12T21:19:35.662Z,94833.91
2023-11-12T21:22:02.786Z,94842.25
2023-11-12T21:24:30.399Z,94845.84
2023-11-12T21:26:58.918Z,94838.09
2023-11-12T21:29:26.567Z,94848.00
2023-11-12T21:31:55.318Z,94847.19
2023-11-12T21:34:23.152Z,94841.34
2023-11-12T21:36:51.468Z,94844.19
2023-11-12T21:39:20.206Z,94820.75
2023-11-12T21:41:49.219Z,94861.13
2023-11-12T21:44:18.846Z,94858.59
2023-11-12T21:46:47.506Z,94848.50
2023-11-12T21:49:14.974Z,94851.34
2023-11-12T21:51:42.314Z,94853.69
2023-11-12T21:54:09.897Z,94844.06
2023-11-12T21:56:37.018Z,94850.06
2023-11-12T21:59:07.019Z,94847.06
2023-11-12T22:01:34.301Z,94844.53
2023-11-12T22:04:03.062Z,94842.44
2023-11-12T22:06:30.564Z,94831.47
2023-11-12T22:08:57.884Z,94840.44
2023-11-12T22:11:26.837Z,94846.00
2023-11-12T22:13:54.893Z,94837.75
2023-11-12T22:16:22.190Z,94826.56
2023-11-12T22:18:49.398Z,94813.66
2023-11-12T22:21:17.884Z,94828.22
2023-11-12T22:23:44.891Z,94825.00
2023-11-12T22:26:12.558Z,94817.75
2023-11-12T22:28:39.679Z,94821.69
2023-11-12T22:31:06.899Z,94816.03
2023-11-12T22:33:34.126Z,94815.09
2023-11-12T22:36:01.703Z,94802.88
2023-11-12T22:38:28.929Z,94800.66
2023-11-12T22:40:57.436Z,94788.69
2023-11-12T22:43:25.859Z,94779.09
2023-11-12T22:45:53.266Z,94772.97
2023-11-12T22:48:20.416Z,94787.97
2023-11-12T22:50:47.626Z,94783.81
2023-11-12T22:53:14.825Z,94778.25
2023-11-12T22:55:43.339Z,94791.66
2023-11-12T22:58:10.790Z,94780.28
2023-11-12T23:00:47.419Z,94785.94
2023-11-12T23:03:16.194Z,94797.47
2023-11-12T23:05:44.854Z,94798.75
2023-11-12T23:08:12.623Z,94808.91
2023-11-12T23:10:43.904Z,94805.59
2023-11-12T23:13:14.480Z,94807.81
2023-11-12T23:15:44.284Z,94794.31
2023-11-12T23:18:13.303Z,94794.22
2023-11-12T23:20:41.513Z,94797.91
2023-11-12T23:23:09.379Z,94785.31
2023-11-12T23:25:36.612Z,94805.41
2023-11-12T23:28:03.863Z,94803.53
2023-11-12T23:30:31.808Z,94800.06
2023-11-12T23:32:58.913Z,94811.06
2023-11-12T23:35:28.604Z,94813.84
2023-11-12T23:37:55.711Z,94823.06
2023-11-12T23:40:23.076Z,94823.41
2023-11-12T23:42:50.245Z,94824.47
2023-11-12T23:45:18.007Z,94807.34
2023-11-12T23:47:45.242Z,94808.97
2023-11-12T23:50:12.494Z,94806.91
2023-11-12T23:52:40.216Z,94805.41
2023-11-12T23:55:07.835Z,94813.13
2023-11-12T23:57:35.748Z,94811.75
